Station Historical Data
Daily Summary for January 17, 2018 Units:  English    Metric   Both
« Previous Day
Next Day »
Daily Weekly Monthly Yearly Custom
  High: Low: Average:
Temperature: 18.1 °F 10.8 °F 15.1 °F
Dew Point: 14.1 °F 6.9 °F 10.6 °F
Humidity: 85% 76% 82%
Wind Speed: 16.0mph 2.0mph 7.1mph
Wind Gust: 21.0mph - -
Wind- - SW
Pressure: 30.45 in 30.17 in -
Precipitation: 0.00 in    
Historical Graphs
 
 
Tabular Data for January 17, 2018
Time Temperature Dew Point Pressure Wind Wind Speed Wind Gust Humidity Rainfall Rate (Hourly)
00:04 15.9 °F 11.1 °F 30.44 in WSW 7.0 mph 15.0 mph 81% 0.00 in
00:09 15.9 °F 11.1 °F 30.43 in WSW 6.0 mph 12.0 mph 81% 0.00 in
00:19 16.0 °F 11.2 °F 30.43 in South 10.0 mph 14.0 mph 81% 0.00 in
00:24 15.9 °F 11.4 °F 30.43 in SW 7.0 mph 15.0 mph 82% 0.00 in
00:29 15.8 °F 11.3 °F 30.43 in SW 8.0 mph 11.0 mph 82% 0.00 in
00:34 15.7 °F 11.2 °F 30.43 in South 8.0 mph 15.0 mph 82% 0.00 in
00:39 15.6 °F 11.1 °F 30.43 in SW 4.0 mph 11.0 mph 82% 0.00 in
00:44 15.5 °F 11.0 °F 30.43 in South 3.0 mph 11.0 mph 82% 0.00 in
00:49 15.3 °F 10.8 °F 30.43 in SW 4.0 mph 11.0 mph 82% 0.00 in
00:54 15.3 °F 11.1 °F 30.43 in SW 5.0 mph 12.0 mph 83% 0.00 in
00:59 15.1 °F 10.9 °F 30.43 in SW 5.0 mph 12.0 mph 83% 0.00 in
01:04 15.0 °F 10.8 °F 30.43 in SW 9.0 mph 9.0 mph 83% 0.00 in
01:14 14.7 °F 10.5 °F 30.43 in SW 6.0 mph 11.0 mph 83% 0.00 in
01:19 14.5 °F 10.3 °F 30.43 in SW 3.0 mph 9.0 mph 83% 0.00 in
01:24 14.4 °F 10.4 °F 30.43 in SSW 3.0 mph 11.0 mph 84% 0.00 in
01:29 14.4 °F 10.4 °F 30.43 in SSW 4.0 mph 11.0 mph 84% 0.00 in
01:34 14.4 °F 10.4 °F 30.43 in SSW 4.0 mph 9.0 mph 84% 0.00 in
01:39 14.4 °F 10.4 °F 30.43 in SSW 5.0 mph 10.0 mph 84% 0.00 in
01:44 14.4 °F 10.4 °F 30.43 in WSW 4.0 mph 10.0 mph 84% 0.00 in
01:49 14.4 °F 10.4 °F 30.43 in SSW 4.0 mph 10.0 mph 84% 0.00 in
01:54 14.3 °F 10.4 °F 30.43 in South 6.0 mph 9.0 mph 84% 0.00 in
01:59 14.3 °F 10.4 °F 30.43 in SW 5.0 mph 10.0 mph 84% 0.00 in
02:04 14.3 °F 10.4 °F 30.44 in WSW 6.0 mph 12.0 mph 84% 0.00 in
02:09 14.3 °F 10.4 °F 30.43 in SW 6.0 mph 12.0 mph 84% 0.00 in
02:14 14.3 °F 10.4 °F 30.43 in SW 5.0 mph 11.0 mph 84% 0.00 in
02:19 14.2 °F 10.3 °F 30.44 in SW 6.0 mph 10.0 mph 84% 0.00 in
02:24 14.1 °F 10.2 °F 30.44 in SW 10.0 mph 10.0 mph 84% 0.00 in
02:29 14.1 °F 10.2 °F 30.44 in SW 6.0 mph 10.0 mph 84% 0.00 in
02:34 14.0 °F 10.1 °F 30.44 in SW 5.0 mph 12.0 mph 84% 0.00 in
02:39 13.9 °F 10.0 °F 30.44 in SW 5.0 mph 14.0 mph 84% 0.00 in
02:44 13.8 °F 9.9 °F 30.44 in SW 5.0 mph 14.0 mph 84% 0.00 in
02:49 13.7 °F 9.8 °F 30.44 in SW 5.0 mph 9.0 mph 84% 0.00 in
02:59 13.5 °F 9.6 °F 30.45 in SSW 5.0 mph 11.0 mph 84% 0.00 in
03:04 13.4 °F 9.5 °F 30.45 in SW 5.0 mph 11.0 mph 84% 0.00 in
03:09 13.4 °F 9.5 °F 30.45 in South 3.0 mph 9.0 mph 84% 0.00 in
03:14 13.2 °F 9.3 °F 30.45 in SSW 5.0 mph 9.0 mph 84% 0.00 in
03:24 13.2 °F 9.3 °F 30.45 in SW 4.0 mph 10.0 mph 84% 0.00 in
03:29 13.2 °F 9.3 °F 30.45 in South 6.0 mph 9.0 mph 84% 0.00 in
03:34 13.2 °F 9.3 °F 30.45 in SW 4.0 mph 9.0 mph 84% 0.00 in
03:39 13.2 °F 9.3 °F 30.45 in South 4.0 mph 8.0 mph 84% 0.00 in
03:44 13.1 °F 9.2 °F 30.44 in WSW 5.0 mph 9.0 mph 84% 0.00 in
03:49 13.1 °F 9.2 °F 30.44 in SW 4.0 mph 7.0 mph 84% 0.00 in
03:54 13.1 °F 9.4 °F 30.44 in SW 4.0 mph 9.0 mph 85% 0.00 in
04:04 13.0 °F 9.1 °F 30.44 in SSW 6.0 mph 13.0 mph 84% 0.00 in
04:09 12.9 °F 9.0 °F 30.44 in SW 6.0 mph 13.0 mph 84% 0.00 in
04:14 12.8 °F 8.9 °F 30.43 in SW 6.0 mph 13.0 mph 84% 0.00 in
04:19 12.8 °F 8.9 °F 30.43 in SSW 5.0 mph 13.0 mph 84% 0.00 in
04:29 12.8 °F 8.9 °F 30.44 in SSW 5.0 mph 11.0 mph 84% 0.00 in
04:34 12.7 °F 8.8 °F 30.44 in SSW 8.0 mph 11.0 mph 84% 0.00 in
04:39 12.6 °F 8.7 °F 30.44 in SSW 3.0 mph 8.0 mph 84% 0.00 in
04:44 12.5 °F 8.6 °F 30.44 in SSW 6.0 mph 10.0 mph 84% 0.00 in
04:49 12.5 °F 8.6 °F 30.44 in SW 6.0 mph 11.0 mph 84% 0.00 in
04:54 12.5 °F 8.6 °F 30.44 in SSW 4.0 mph 11.0 mph 84% 0.00 in
04:59 12.5 °F 8.6 °F 30.44 in WSW 5.0 mph 11.0 mph 84% 0.00 in
05:04 12.5 °F 8.6 °F 30.44 in South 7.0 mph 12.0 mph 84% 0.00 in
05:09 12.4 °F 8.7 °F 30.44 in SSW 5.0 mph 8.0 mph 85% 0.00 in
05:14 12.4 °F 8.7 °F 30.44 in SW 5.0 mph 10.0 mph 85% 0.00 in
05:19 12.3 °F 8.7 °F 30.44 in SW 5.0 mph 11.0 mph 85% 0.00 in
05:24 12.4 °F 8.7 °F 30.44 in SSW 6.0 mph 11.0 mph 85% 0.00 in
05:29 12.4 °F 8.7 °F 30.44 in SSW 4.0 mph 11.0 mph 85% 0.00 in
05:34 12.4 °F 8.7 °F 30.44 in WSW 4.0 mph 11.0 mph 85% 0.00 in
05:39 12.3 °F 8.7 °F 30.44 in SSW 5.0 mph 9.0 mph 85% 0.00 in
05:44 12.2 °F 8.3 °F 30.44 in SSW 6.0 mph 13.0 mph 84% 0.00 in
05:49 12.1 °F 8.2 °F 30.44 in SSW 7.0 mph 13.0 mph 84% 0.00 in
05:54 12.1 °F 8.2 °F 30.45 in SSW 5.0 mph 13.0 mph 84% 0.00 in
05:59 11.9 °F 8.0 °F 30.45 in West 10.0 mph 14.0 mph 84% 0.00 in
06:04 11.8 °F 8.2 °F 30.44 in WSW 10.0 mph 10.0 mph 85% 0.00 in
06:09 11.7 °F 8.1 °F 30.44 in SSW 4.0 mph 15.0 mph 85% 0.00 in
06:14 11.6 °F 8.0 °F 30.45 in South 3.0 mph 12.0 mph 85% 0.00 in
06:19 11.6 °F 7.7 °F 30.45 in South 5.0 mph 11.0 mph 84% 0.00 in
06:34 11.4 °F 7.5 °F 30.44 in SW 6.0 mph 11.0 mph 84% 0.00 in
06:39 11.3 °F 7.7 °F 30.45 in SW 5.0 mph 13.0 mph 85% 0.00 in
06:44 11.2 °F 7.6 °F 30.45 in SW 6.0 mph 13.0 mph 85% 0.00 in
06:59 11.1 °F 7.2 °F 30.44 in SW 5.0 mph 12.0 mph 84% 0.00 in
07:09 11.0 °F 7.1 °F 30.45 in SSW 5.0 mph 13.0 mph 84% 0.00 in
07:14 10.9 °F 7.0 °F 30.44 in South 3.0 mph 10.0 mph 84% 0.00 in
07:19 10.8 °F 6.9 °F 30.45 in SW 5.0 mph 13.0 mph 84% 0.00 in
07:24 10.8 °F 6.9 °F 30.45 in WSW 4.0 mph 11.0 mph 84% 0.00 in
07:29 10.8 °F 6.9 °F 30.44 in SSW 5.0 mph 11.0 mph 84% 0.00 in
07:34 10.8 °F 6.9 °F 30.44 in SSW 5.0 mph 10.0 mph 84% 0.00 in
07:44 10.8 °F 6.9 °F 30.44 in SSW 3.0 mph 11.0 mph 84% 0.00 in
07:49 10.8 °F 6.9 °F 30.44 in SW 6.0 mph 11.0 mph 84% 0.00 in
07:54 10.8 °F 6.9 °F 30.44 in SSW 5.0 mph 13.0 mph 84% 0.00 in
07:59 10.8 °F 6.9 °F 30.44 in SSW 5.0 mph 8.0 mph 84% 0.00 in
08:04 11.0 °F 7.1 °F 30.44 in SSW 4.0 mph 9.0 mph 84% 0.00 in
08:09 10.9 °F 7.0 °F 30.44 in SSW 5.0 mph 9.0 mph 84% 0.00 in
08:14 10.9 °F 7.0 °F 30.44 in SSW 5.0 mph 12.0 mph 84% 0.00 in
08:19 11.0 °F 7.1 °F 30.45 in SSE 6.0 mph 9.0 mph 84% 0.00 in
08:24 11.0 °F 7.1 °F 30.44 in SW 6.0 mph 9.0 mph 84% 0.00 in
08:29 11.1 °F 7.2 °F 30.44 in SSW 3.0 mph 7.0 mph 84% 0.00 in
08:34 11.3 °F 7.7 °F 30.44 in SSW 4.0 mph 10.0 mph 85% 0.00 in
08:39 11.4 °F 7.8 °F 30.44 in SSW 5.0 mph 10.0 mph 85% 0.00 in
08:44 11.5 °F 7.6 °F 30.44 in SSW 3.0 mph 9.0 mph 84% 0.00 in
08:49 11.5 °F 7.6 °F 30.44 in South 4.0 mph 9.0 mph 84% 0.00 in
08:59 11.6 °F 7.7 °F 30.44 in SW 9.0 mph 10.0 mph 84% 0.00 in
09:04 11.7 °F 7.8 °F 30.44 in SW 2.0 mph 12.0 mph 84% 0.00 in
09:09 11.7 °F 7.8 °F 30.44 in SSW 5.0 mph 12.0 mph 84% 0.00 in
09:14 11.9 °F 8.0 °F 30.44 in SSW 4.0 mph 11.0 mph 84% 0.00 in
09:19 12.1 °F 8.2 °F 30.45 in SSE 5.0 mph 9.0 mph 84% 0.00 in
09:24 12.1 °F 8.2 °F 30.45 in SW 5.0 mph 11.0 mph 84% 0.00 in
09:29 12.3 °F 8.4 °F 30.45 in SSW 6.0 mph 8.0 mph 84% 0.00 in
09:34 12.4 °F 8.5 °F 30.45 in SSW 5.0 mph 11.0 mph 84% 0.00 in
09:39 12.5 °F 8.6 °F 30.45 in SSW 5.0 mph 11.0 mph 84% 0.00 in
09:44 12.7 °F 8.8 °F 30.45 in SSW 5.0 mph 10.0 mph 84% 0.00 in
09:49 12.8 °F 8.9 °F 30.45 in SW 6.0 mph 14.0 mph 84% 0.00 in
09:54 13.0 °F 9.1 °F 30.45 in WSW 3.0 mph 10.0 mph 84% 0.00 in
09:59 13.2 °F 9.3 °F 30.45 in SW 6.0 mph 11.0 mph 84% 0.00 in
10:04 13.2 °F 9.3 °F 30.45 in South 2.0 mph 11.0 mph 84% 0.00 in
10:09 13.6 °F 9.7 °F 30.45 in SSW 5.0 mph 11.0 mph 84% 0.00 in
10:14 14.0 °F 10.1 °F 30.45 in SW 4.0 mph 11.0 mph 84% 0.00 in
10:19 14.2 °F 10.0 °F 30.45 in SW 5.0 mph 12.0 mph 83% 0.00 in
10:24 14.5 °F 10.3 °F 30.45 in SW 6.0 mph 12.0 mph 83% 0.00 in
10:29 14.9 °F 10.7 °F 30.45 in SW 6.0 mph 12.0 mph 83% 0.00 in
10:34 15.4 °F 11.2 °F 30.45 in SW 6.0 mph 13.0 mph 83% 0.00 in
10:39 16.0 °F 11.5 °F 30.45 in SW 7.0 mph 14.0 mph 82% 0.00 in
10:44 15.8 °F 11.3 °F 30.45 in SW 7.0 mph 16.0 mph 82% 0.00 in
10:54 16.3 °F 11.8 °F 30.45 in SW 7.0 mph 12.0 mph 82% 0.00 in
10:59 16.4 °F 11.9 °F 30.45 in SW 7.0 mph 12.0 mph 82% 0.00 in
11:04 16.4 °F 11.9 °F 30.45 in WSW 6.0 mph 16.0 mph 82% 0.00 in
11:09 16.1 °F 11.3 °F 30.45 in SW 8.0 mph 16.0 mph 81% 0.00 in
11:14 15.9 °F 11.1 °F 30.45 in South 5.0 mph 16.0 mph 81% 0.00 in
11:24 15.7 °F 10.9 °F 30.44 in SW 7.0 mph 16.0 mph 81% 0.00 in
11:34 15.3 °F 10.8 °F 30.44 in SW 8.0 mph 15.0 mph 82% 0.00 in
11:39 15.2 °F 10.7 °F 30.44 in SW 8.0 mph 14.0 mph 82% 0.00 in
11:44 15.3 °F 10.8 °F 30.44 in SSW 4.0 mph 13.0 mph 82% 0.00 in
11:49 15.4 °F 10.9 °F 30.43 in SW 5.0 mph 13.0 mph 82% 0.00 in
11:54 15.2 °F 10.7 °F 30.43 in SSW 5.0 mph 17.0 mph 82% 0.00 in
11:59 15.2 °F 11.0 °F 30.42 in SW 7.0 mph 17.0 mph 83% 0.00 in
12:09 15.4 °F 11.2 °F 30.42 in SW 6.0 mph 13.0 mph 83% 0.00 in
12:14 15.6 °F 11.4 °F 30.41 in SW 11.0 mph 13.0 mph 83% 0.00 in
12:19 16.0 °F 12.0 °F 30.41 in SW 7.0 mph 13.0 mph 84% 0.00 in
12:24 16.5 °F 12.5 °F 30.40 in SW 6.0 mph 12.0 mph 84% 0.00 in
12:29 17.2 °F 13.2 °F 30.40 in SW 10.0 mph 18.0 mph 84% 0.00 in
12:34 17.4 °F 13.1 °F 30.40 in SW 9.0 mph 18.0 mph 83% 0.00 in
12:39 17.8 °F 13.5 °F 30.39 in WSW 8.0 mph 14.0 mph 83% 0.00 in
12:49 17.9 °F 13.3 °F 30.39 in South 5.0 mph 14.0 mph 82% 0.00 in
12:54 17.7 °F 12.9 °F 30.39 in WSW 9.0 mph 16.0 mph 81% 0.00 in
13:09 16.8 °F 12.0 °F 30.39 in SW 9.0 mph 18.0 mph 81% 0.00 in
13:14 16.7 °F 12.2 °F 30.39 in SW 9.0 mph 18.0 mph 82% 0.00 in
13:19 16.7 °F 12.4 °F 30.39 in SW 9.0 mph 15.0 mph 83% 0.00 in
13:24 16.9 °F 12.6 °F 30.38 in South 8.0 mph 15.0 mph 83% 0.00 in
13:29 17.1 °F 12.8 °F 30.38 in SW 8.0 mph 17.0 mph 83% 0.00 in
13:34 17.3 °F 13.0 °F 30.38 in WSW 12.0 mph 14.0 mph 83% 0.00 in
13:39 17.4 °F 13.1 °F 30.38 in SW 8.0 mph 16.0 mph 83% 0.00 in
13:44 17.4 °F 13.1 °F 30.38 in SW 8.0 mph 16.0 mph 83% 0.00 in
13:49 17.2 °F 12.9 °F 30.38 in WSW 8.0 mph 20.0 mph 83% 0.00 in
13:54 17.0 °F 12.7 °F 30.38 in WSW 7.0 mph 19.0 mph 83% 0.00 in
13:59 17.2 °F 12.9 °F 30.37 in SW 10.0 mph 17.0 mph 83% 0.00 in
14:04 17.3 °F 13.0 °F 30.37 in WSW 6.0 mph 15.0 mph 83% 0.00 in
14:09 17.3 °F 13.0 °F 30.38 in South 9.0 mph 16.0 mph 83% 0.00 in
14:14 17.4 °F 13.1 °F 30.37 in SW 8.0 mph 16.0 mph 83% 0.00 in
14:24 17.5 °F 13.2 °F 30.38 in SW 8.0 mph 17.0 mph 83% 0.00 in
14:29 17.5 °F 13.2 °F 30.37 in SSW 7.0 mph 17.0 mph 83% 0.00 in
14:39 17.1 °F 12.8 °F 30.37 in South 8.0 mph 19.0 mph 83% 0.00 in
14:44 17.0 °F 12.7 °F 30.37 in WSW 9.0 mph 17.0 mph 83% 0.00 in
14:49 17.1 °F 13.1 °F 30.36 in SW 8.0 mph 17.0 mph 84% 0.00 in
14:54 17.0 °F 13.0 °F 30.37 in SW 8.0 mph 17.0 mph 84% 0.00 in
14:59 17.0 °F 13.0 °F 30.36 in SW 9.0 mph 19.0 mph 84% 0.00 in
15:04 16.9 °F 12.9 °F 30.36 in SW 9.0 mph 19.0 mph 84% 0.00 in
15:14 17.1 °F 13.1 °F 30.37 in SW 12.0 mph 17.0 mph 84% 0.00 in
15:19 17.1 °F 13.1 °F 30.36 in SW 13.0 mph 15.0 mph 84% 0.00 in
15:24 17.2 °F 13.2 °F 30.36 in SW 8.0 mph 15.0 mph 84% 0.00 in
15:44 17.3 °F 13.3 °F 30.36 in WSW 10.0 mph 16.0 mph 84% 0.00 in
15:49 17.3 °F 13.3 °F 30.35 in WSW 7.0 mph 19.0 mph 84% 0.00 in
15:54 17.3 °F 13.3 °F 30.35 in SW 9.0 mph 19.0 mph 84% 0.00 in
16:00 17.2 °F 13.2 °F 30.35 in SW 5.0 mph 16.0 mph 84% 0.00 in
16:05 17.2 °F 13.2 °F 30.35 in SW 8.0 mph 17.0 mph 84% 0.00 in
16:10 17.1 °F 13.1 °F 30.35 in SW 8.0 mph 18.0 mph 84% 0.00 in
16:19 17.0 °F 13.0 °F 30.35 in SSW 11.0 mph 14.0 mph 84% 0.00 in
16:24 17.0 °F 13.0 °F 30.34 in SW 7.0 mph 14.0 mph 84% 0.00 in
16:29 17.0 °F 13.0 °F 30.34 in SSW 6.0 mph 19.0 mph 84% 0.00 in
16:39 16.9 °F 12.9 °F 30.34 in South 9.0 mph 17.0 mph 84% 0.00 in
16:44 16.9 °F 12.9 °F 30.33 in WSW 8.0 mph 17.0 mph 84% 0.00 in
16:49 16.9 °F 12.9 °F 30.33 in SW 9.0 mph 18.0 mph 84% 0.00 in
16:54 16.9 °F 12.9 °F 30.34 in SW 5.0 mph 15.0 mph 84% 0.00 in
16:59 16.9 °F 13.2 °F 30.33 in SW 7.0 mph 15.0 mph 85% 0.00 in
17:04 16.9 °F 12.9 °F 30.33 in SW 8.0 mph 17.0 mph 84% 0.00 in
17:09 16.9 °F 12.9 °F 30.33 in SW 8.0 mph 17.0 mph 84% 0.00 in
17:14 17.1 °F 13.1 °F 30.33 in SW 8.0 mph 16.0 mph 84% 0.00 in
17:19 17.1 °F 13.1 °F 30.33 in SW 9.0 mph 18.0 mph 84% 0.00 in
17:24 17.2 °F 13.2 °F 30.33 in SW 10.0 mph 18.0 mph 84% 0.00 in
17:34 17.3 °F 13.3 °F 30.33 in SW 7.0 mph 14.0 mph 84% 0.00 in
17:39 17.3 °F 13.3 °F 30.32 in SW 9.0 mph 18.0 mph 84% 0.00 in
17:44 17.4 °F 13.4 °F 30.32 in SW 8.0 mph 19.0 mph 84% 0.00 in
17:49 17.5 °F 13.5 °F 30.33 in WSW 12.0 mph 19.0 mph 84% 0.00 in
17:54 17.6 °F 13.6 °F 30.32 in SW 9.0 mph 16.0 mph 84% 0.00 in
17:59 17.6 °F 13.6 °F 30.32 in WSW 13.0 mph 17.0 mph 84% 0.00 in
18:04 17.6 °F 13.6 °F 30.31 in SW 15.0 mph 20.0 mph 84% 0.00 in
18:09 17.5 °F 13.5 °F 30.31 in SW 10.0 mph 20.0 mph 84% 0.00 in
18:14 17.4 °F 13.4 °F 30.31 in SW 9.0 mph 21.0 mph 84% 0.00 in
18:19 17.5 °F 13.5 °F 30.31 in SW 9.0 mph 21.0 mph 84% 0.00 in
18:24 17.5 °F 13.5 °F 30.31 in SW 9.0 mph 17.0 mph 84% 0.00 in
18:29 17.7 °F 13.7 °F 30.31 in SW 10.0 mph 17.0 mph 84% 0.00 in
18:34 17.7 °F 13.7 °F 30.31 in SW 9.0 mph 17.0 mph 84% 0.00 in
18:39 17.8 °F 13.8 °F 30.30 in South 9.0 mph 18.0 mph 84% 0.00 in
18:44 17.9 °F 13.9 °F 30.30 in SW 9.0 mph 20.0 mph 84% 0.00 in
18:49 18.0 °F 14.0 °F 30.30 in WSW 12.0 mph 17.0 mph 84% 0.00 in
18:54 18.0 °F 14.0 °F 30.29 in SSW 8.0 mph 16.0 mph 84% 0.00 in
18:59 18.1 °F 14.1 °F 30.29 in SW 8.0 mph 15.0 mph 84% 0.00 in
19:04 18.0 °F 14.0 °F 30.29 in SSW 2.0 mph 18.0 mph 84% 0.00 in
19:09 18.0 °F 13.7 °F 30.29 in SSW 7.0 mph 17.0 mph 83% 0.00 in
19:14 17.6 °F 13.0 °F 30.28 in SSW 4.0 mph 15.0 mph 82% 0.00 in
19:19 17.5 °F 12.9 °F 30.29 in SW 7.0 mph 15.0 mph 82% 0.00 in
19:24 17.5 °F 12.9 °F 30.28 in SW 7.0 mph 21.0 mph 82% 0.00 in
19:29 17.5 °F 12.7 °F 30.28 in SW 8.0 mph 21.0 mph 81% 0.00 in
19:34 17.4 °F 12.3 °F 30.28 in SW 8.0 mph 16.0 mph 80% 0.00 in
19:39 17.4 °F 12.0 °F 30.28 in SSW 8.0 mph 17.0 mph 79% 0.00 in
19:44 17.3 °F 11.6 °F 30.27 in SSW 9.0 mph 18.0 mph 78% 0.00 in
19:49 17.3 °F 11.6 °F 30.27 in South 11.0 mph 19.0 mph 78% 0.00 in
19:54 17.0 °F 11.0 °F 30.27 in SW 6.0 mph 17.0 mph 77% 0.00 in
19:59 16.9 °F 10.9 °F 30.27 in SSW 8.0 mph 17.0 mph 77% 0.00 in
20:04 16.8 °F 10.5 °F 30.27 in SW 14.0 mph 15.0 mph 76% 0.00 in
20:09 16.6 °F 10.3 °F 30.26 in South 13.0 mph 17.0 mph 76% 0.00 in
20:14 16.4 °F 10.2 °F 30.26 in WSW 3.0 mph 14.0 mph 76% 0.00 in
20:19 16.2 °F 10.0 °F 30.26 in SW 6.0 mph 15.0 mph 76% 0.00 in
20:24 16.0 °F 9.8 °F 30.26 in SW 7.0 mph 15.0 mph 76% 0.00 in
20:29 15.9 °F 9.7 °F 30.26 in SW 7.0 mph 15.0 mph 76% 0.00 in
20:34 15.9 °F 9.7 °F 30.25 in SW 7.0 mph 15.0 mph 76% 0.00 in
20:39 15.9 °F 9.7 °F 30.25 in SW 7.0 mph 15.0 mph 76% 0.00 in
20:44 15.9 °F 9.7 °F 30.25 in SW 7.0 mph 13.0 mph 76% 0.00 in
20:49 15.8 °F 9.6 °F 30.25 in SSW 16.0 mph 16.0 mph 76% 0.00 in
20:54 15.7 °F 9.5 °F 30.25 in WSW 6.0 mph 16.0 mph 76% 0.00 in
20:59 15.6 °F 9.4 °F 30.25 in SW 7.0 mph 16.0 mph 76% 0.00 in
21:04 15.5 °F 9.3 °F 30.24 in SSW 12.0 mph 14.0 mph 76% 0.00 in
21:09 15.5 °F 9.3 °F 30.24 in SW 8.0 mph 13.0 mph 76% 0.00 in
21:14 15.5 °F 9.3 °F 30.24 in SW 12.0 mph 15.0 mph 76% 0.00 in
21:19 15.6 °F 9.4 °F 30.24 in South 6.0 mph 16.0 mph 76% 0.00 in
21:24 15.7 °F 9.5 °F 30.24 in SW 8.0 mph 16.0 mph 76% 0.00 in
21:29 15.8 °F 9.6 °F 30.24 in SSW 8.0 mph 16.0 mph 76% 0.00 in
21:34 15.9 °F 9.7 °F 30.24 in SW 7.0 mph 14.0 mph 76% 0.00 in
21:39 16.0 °F 10.1 °F 30.23 in SW 8.0 mph 17.0 mph 77% 0.00 in
21:44 16.1 °F 10.2 °F 30.23 in WSW 8.0 mph 17.0 mph 77% 0.00 in
21:49 16.1 °F 10.2 °F 30.22 in WSW 11.0 mph 19.0 mph 77% 0.00 in
21:54 16.1 °F 10.2 °F 30.22 in SW 10.0 mph 18.0 mph 77% 0.00 in
21:59 16.3 °F 10.4 °F 30.22 in SW 8.0 mph 18.0 mph 77% 0.00 in
22:04 16.6 °F 10.9 °F 30.22 in SW 9.0 mph 17.0 mph 78% 0.00 in
22:09 16.7 °F 11.0 °F 30.21 in SW 8.0 mph 17.0 mph 78% 0.00 in
22:14 16.8 °F 11.1 °F 30.21 in WSW 11.0 mph 16.0 mph 78% 0.00 in
22:19 16.8 °F 11.1 °F 30.21 in West 9.0 mph 19.0 mph 78% 0.00 in
22:24 16.8 °F 11.1 °F 30.21 in SW 10.0 mph 15.0 mph 78% 0.00 in
22:29 16.9 °F 11.2 °F 30.21 in SW 9.0 mph 18.0 mph 78% 0.00 in
22:34 17.0 °F 11.3 °F 30.20 in SW 9.0 mph 18.0 mph 78% 0.00 in
22:39 17.0 °F 11.3 °F 30.20 in SSW 11.0 mph 19.0 mph 78% 0.00 in
22:44 17.1 °F 11.4 °F 30.20 in SW 14.0 mph 20.0 mph 78% 0.00 in
22:49 17.1 °F 11.7 °F 30.20 in SW 7.0 mph 18.0 mph 79% 0.00 in
22:54 17.1 °F 11.4 °F 30.20 in SSE 8.0 mph 19.0 mph 78% 0.00 in
22:59 17.0 °F 11.3 °F 30.20 in SW 11.0 mph 19.0 mph 78% 0.00 in
23:04 16.9 °F 11.2 °F 30.19 in SW 10.0 mph 19.0 mph 78% 0.00 in
23:09 16.7 °F 11.0 °F 30.19 in SW 10.0 mph 19.0 mph 78% 0.00 in
23:14 16.5 °F 10.8 °F 30.19 in SW 10.0 mph 20.0 mph 78% 0.00 in
23:19 16.4 °F 10.7 °F 30.19 in SW 8.0 mph 16.0 mph 78% 0.00 in
23:24 16.2 °F 10.5 °F 30.18 in SSW 16.0 mph 19.0 mph 78% 0.00 in
23:29 16.2 °F 10.8 °F 30.19 in SW 9.0 mph 20.0 mph 79% 0.00 in
23:34 16.1 °F 10.7 °F 30.18 in SW 9.0 mph 20.0 mph 79% 0.00 in
23:39 15.9 °F 10.3 °F 30.18 in SW 9.0 mph 21.0 mph 78% 0.00 in
23:44 15.9 °F 10.3 °F 30.18 in SW 11.0 mph 21.0 mph 78% 0.00 in
23:49 15.8 °F 10.2 °F 30.18 in SW 11.0 mph 21.0 mph 78% 0.00 in
23:54 15.7 °F 10.1 °F 30.17 in SW 9.0 mph 21.0 mph 78% 0.00 in
23:59 15.5 °F 9.6 °F 30.17 in SW 13.0 mph 17.0 mph 77% 0.00 in
Buffalo, New York, USA
Compliments of Weather Underground - 2.25 mb